Terminal Aerodrome Forecast
Issued by NWS Blacksburg, VA

Current Version | Previous Version | Graphics & Text | Print | Product List | Glossary On
Versions: 1 2 3 4 5 6 7 8 9 10 11 12 13 14 15 16 17 18 19 20 21 22 23 24 25 26 27 28 29 30 31 32 33 34 35
000
FTUS41 KRNK 241424 AAA
TAFBLF
TAF AMD
KBLF 241424Z 2414/2512 12004KT P6SM FEW008 OVC012
     FM241700 13007KT P6SM OVC020
     FM242100 12008KT P6SM BKN040
     FM250200 13005KT P6SM SCT045=

USA.gov is the U.S. government's official web portal to all federal, state and local government web resources and services.